Etusivu
METAR-TAF:

METAR-TAF

Lentoasemat :

Fillmore County Airport

Preston, Minnesota, Yhdysvallat

Leveyspiiri: 43-40-36N, Pituuspiiri: 092-10-47W, korkeus merenpinnasta: 389 m

Tämänhetkinen sää

Tämä raportti tehtiin 23 minuuttia sitten, kello 07.55 UTC
Tuuli 5 kn lännestä/luoteesta
Lämpötila 8°C
Kosteus 87%
Ilmanpaine 1012 hPa
Näkyvyys: 16.1 km
Hajanaisia pilviä 1000 ft:n korkeudessa
Hajanaisia pilviä 2400 ft:n korkeudessa
Hajonneita pilviä 6000 ft:n korkeudessa

METAR: KFKA 290755Z AUTO 29005KT 10SM SCT010 SCT024 BKN060 08/06 A2988 RMK AO2 T00750062

Aika: 03:18 (08:18 UTC)


TAF: puuttuu

Säähavainnot ja -ennusteet yli 4000 lentoasemalta (METAR- ja TAF-raportit).

Käytössä olevat sääasemat on merkitty karttaan keltaisilla ja punaisilla pisteillä.

Aseta hiiri pisteen päälle nähdäksesi sääaseman nimen.

Klikkaa sitten nähdäksesi säähavainnot ja -ennusteet.

Kartan vaihtaminen: klikkaa mustalla rastilla varustettuja vihreitä pisteitä, niin voit zoomata sisään; viivalla varustettua vihreää pistettä, niin voit zoomata ulos tai vihreitä nuolia, niin pääset viereisille kartoille.


METAR-TAF: